createdAt,value
2019-02-28T00:00:17.992Z,36.15
2019-02-28T00:02:50.138Z,34.80
2019-02-28T00:05:20.734Z,34.55
2019-02-28T00:07:51.418Z,35.60
2019-02-28T00:10:21.893Z,35.38
2019-02-28T00:12:52.637Z,34.07
2019-02-28T00:15:23.149Z,35.00
2019-02-28T00:17:53.630Z,35.00
2019-02-28T00:20:23.964Z,34.77
2019-02-28T00:22:54.387Z,34.60
2019-02-28T00:25:24.782Z,36.20
2019-02-28T00:27:55.225Z,35.13
2019-02-28T00:30:25.776Z,35.07
2019-02-28T00:32:59.394Z,34.63
2019-02-28T00:35:28.525Z,36.03
2019-02-28T00:37:58.963Z,34.40
2019-02-28T00:40:29.573Z,34.93
2019-02-28T00:43:00.020Z,33.70
2019-02-28T00:45:30.437Z,35.23
2019-02-28T00:48:00.879Z,33.93
2019-02-28T00:50:31.559Z,32.73
2019-02-28T00:53:02.345Z,30.77
2019-02-28T00:55:32.907Z,32.43
2019-02-28T00:58:03.393Z,31.83
2019-02-28T01:00:37.002Z,32.13
2019-02-28T01:03:05.978Z,32.10
2019-02-28T01:05:37.218Z,32.47
2019-02-28T01:08:07.700Z,29.30
2019-02-28T01:10:39.395Z,32.77
2019-02-28T01:13:10.443Z,32.95
2019-02-28T01:15:44.811Z,31.37
2019-02-28T01:18:13.813Z,30.47
2019-02-28T01:20:50.026Z,32.13
2019-02-28T01:23:16.742Z,31.97
2019-02-28T01:25:47.195Z,29.80
2019-02-28T01:28:17.643Z,31.33
2019-02-28T01:30:48.386Z,32.00
2019-02-28T01:33:24.648Z,31.87
2019-02-28T01:35:51.023Z,30.07
2019-02-28T01:38:23.931Z,31.45
2019-02-28T01:40:53.720Z,29.73
2019-02-28T01:43:28.529Z,29.93
2019-02-28T01:45:56.740Z,28.87
2019-02-28T01:48:27.220Z,28.87
2019-02-28T01:51:00.781Z,27.20
2019-02-28T01:53:30.033Z,29.13
2019-02-28T01:56:02.546Z,28.13
2019-02-28T01:58:32.941Z,28.73
2019-02-28T02:01:03.639Z,27.03
2019-02-28T02:03:34.161Z,26.57
2019-02-28T02:06:06.104Z,26.03
2019-02-28T02:08:37.807Z,26.50
2019-02-28T02:11:08.877Z,25.07
2019-02-28T02:13:39.213Z,25.50
2019-02-28T02:16:09.603Z,25.05
2019-02-28T02:18:43.188Z,26.07
2019-02-28T02:21:12.502Z,24.77
2019-02-28T02:23:42.886Z,24.90
2019-02-28T02:26:14.243Z,23.77
2019-02-28T02:28:44.609Z,23.43
2019-02-28T02:31:15.085Z,23.30
2019-02-28T02:33:50.935Z,23.67
2019-02-28T02:36:17.820Z,23.10
2019-02-28T02:38:48.232Z,23.90
2019-02-28T02:41:18.764Z,24.72
2019-02-28T02:43:49.550Z,24.17
2019-02-28T02:46:21.434Z,24.00
2019-02-28T02:48:51.811Z,24.40
2019-02-28T02:51:22.228Z,24.70
2019-02-28T02:53:52.930Z,25.50
2019-02-28T02:56:23.446Z,24.52
2019-02-28T02:58:53.804Z,24.83
2019-02-28T03:01:24.546Z,25.87
2019-02-28T03:03:54.986Z,24.10
2019-02-28T03:06:25.466Z,23.20
2019-02-28T03:08:56.935Z,24.97
2019-02-28T03:11:27.413Z,23.93
2019-02-28T03:13:57.790Z,25.10
2019-02-28T03:16:28.179Z,25.13
2019-02-28T03:18:58.590Z,24.18
2019-02-28T03:21:29.029Z,25.70
2019-02-28T03:23:59.409Z,26.50
2019-02-28T03:26:30.265Z,24.27
2019-02-28T03:29:07.537Z,25.33
2019-02-28T03:31:32.733Z,27.30
2019-02-28T03:34:10.304Z,26.27
2019-02-28T03:36:35.321Z,27.60
2019-02-28T03:39:07.355Z,26.73
2019-02-28T03:41:37.905Z,26.37
2019-02-28T03:44:08.435Z,26.87
2019-02-28T03:46:39.059Z,25.10
2019-02-28T03:49:11.400Z,26.80
2019-02-28T03:51:41.919Z,26.47
2019-02-28T03:54:12.635Z,27.47
2019-02-28T03:56:43.235Z,26.83
2019-02-28T03:59:18.139Z,27.02
2019-02-28T04:01:47.031Z,27.52
2019-02-28T04:04:17.374Z,25.75
2019-02-28T04:06:47.775Z,27.07
2019-02-28T04:09:18.515Z,27.30
2019-02-28T04:11:48.909Z,26.50
2019-02-28T04:14:19.343Z,25.97
2019-02-28T04:16:54.084Z,27.47
2019-02-28T04:19:23.181Z,28.62
2019-02-28T04:21:53.588Z,28.17
2019-02-28T04:24:23.969Z,29.53
2019-02-28T04:26:54.311Z,29.87
2019-02-28T04:29:29.995Z,28.50
2019-02-28T04:31:58.115Z,26.47
2019-02-28T04:34:28.970Z,26.47
2019-02-28T04:36:59.455Z,24.43
2019-02-28T04:39:30.152Z,24.10
2019-02-28T04:42:01.071Z,24.63
2019-02-28T04:44:31.511Z,25.80
2019-02-28T04:47:03.477Z,25.95
2019-02-28T04:49:34.061Z,24.07
2019-02-28T04:52:05.645Z,23.70
2019-02-28T04:54:36.326Z,22.77
2019-02-28T04:57:06.940Z,23.37
2019-02-28T04:59:37.350Z,24.23
2019-02-28T05:02:08.016Z,23.37
2019-02-28T05:04:38.694Z,24.47
2019-02-28T05:07:09.155Z,24.33
2019-02-28T05:09:41.291Z,24.77
2019-02-28T05:12:13.171Z,23.90
2019-02-28T05:14:43.986Z,23.93
2019-02-28T05:17:14.391Z,23.38
2019-02-28T05:19:46.078Z,23.43
2019-02-28T05:22:18.618Z,23.65
2019-02-28T05:24:51.373Z,24.90
2019-02-28T05:27:24.310Z,23.93
2019-02-28T05:29:55.187Z,23.97
2019-02-28T05:32:27.735Z,23.47
2019-02-28T05:35:00.057Z,22.53
2019-02-28T05:37:32.232Z,23.27
2019-02-28T05:40:06.112Z,24.33
2019-02-28T05:42:37.516Z,24.03
2019-02-28T05:45:11.362Z,23.63
2019-02-28T05:47:46.397Z,23.73
2019-02-28T05:50:16.835Z,23.80
2019-02-28T05:52:48.420Z,23.17
2019-02-28T05:55:24.598Z,22.67
2019-02-28T05:57:53.375Z,22.77
2019-02-28T06:00:26.113Z,22.27
2019-02-28T06:02:58.234Z,22.43
2019-02-28T06:05:29.145Z,22.77
2019-02-28T06:08:00.519Z,22.43
2019-02-28T06:10:32.087Z,21.67
2019-02-28T06:13:02.591Z,19.33
2019-02-28T06:15:34.192Z,21.03
2019-02-28T06:18:05.640Z,20.87
2019-02-28T06:20:36.104Z,19.53
2019-02-28T06:23:09.303Z,19.77
2019-02-28T06:25:38.652Z,19.90
2019-02-28T06:28:09.097Z,22.10
2019-02-28T06:30:41.538Z,21.83
2019-02-28T06:33:11.613Z,20.67
2019-02-28T06:35:42.241Z,20.40
2019-02-28T06:38:12.710Z,18.98
2019-02-28T06:40:43.188Z,18.50
2019-02-28T06:43:14.226Z,20.15
2019-02-28T06:45:44.698Z,20.60
2019-02-28T06:48:15.065Z,19.10
2019-02-28T06:50:45.637Z,19.55
2019-02-28T06:53:16.033Z,19.70
2019-02-28T06:55:49.310Z,18.60
2019-02-28T06:58:19.776Z,19.43
2019-02-28T07:00:50.592Z,17.87
2019-02-28T07:03:21.136Z,17.57
2019-02-28T07:05:51.576Z,18.60
2019-02-28T07:08:24.892Z,17.73
2019-02-28T07:10:54.083Z,18.53
2019-02-28T07:13:24.586Z,18.67
2019-02-28T07:15:55.561Z,17.90
2019-02-28T07:18:27.244Z,17.40
2019-02-28T07:20:57.630Z,17.80
2019-02-28T07:23:29.955Z,17.57
2019-02-28T07:26:00.252Z,18.33
2019-02-28T07:28:36.292Z,18.07
2019-02-28T07:31:02.790Z,17.50
2019-02-28T07:33:33.238Z,19.10
2019-02-28T07:36:05.664Z,17.10
2019-02-28T07:38:35.745Z,17.83
2019-02-28T07:41:06.262Z,17.07
2019-02-28T07:43:36.722Z,17.13
2019-02-28T07:46:07.761Z,17.03
2019-02-28T07:48:39.038Z,16.90
2019-02-28T07:51:09.677Z,16.20
2019-02-28T07:53:40.960Z,15.20
2019-02-28T07:56:12.290Z,15.97
2019-02-28T07:58:42.771Z,14.23
2019-02-28T08:01:13.266Z,14.95
2019-02-28T08:03:44.947Z,15.80
2019-02-28T08:06:15.619Z,14.67
2019-02-28T08:08:46.081Z,14.07
2019-02-28T08:11:19.944Z,14.87
2019-02-28T08:13:49.858Z,14.13
2019-02-28T08:16:20.309Z,13.83
2019-02-28T08:18:51.367Z,14.13
2019-02-28T08:21:23.034Z,13.97
2019-02-28T08:23:53.466Z,15.13
2019-02-28T08:26:23.950Z,14.90
2019-02-28T08:28:54.451Z,13.70
2019-02-28T08:31:24.895Z,14.73
2019-02-28T08:33:56.363Z,14.30
2019-02-28T08:36:26.793Z,14.00
2019-02-28T08:38:57.247Z,13.37
2019-02-28T08:41:27.662Z,12.43
2019-02-28T08:43:58.192Z,12.93
2019-02-28T08:46:28.800Z,13.00
2019-02-28T08:48:59.328Z,13.03
2019-02-28T08:51:31.033Z,12.23
2019-02-28T08:54:02.201Z,11.90
2019-02-28T08:56:32.725Z,12.53
2019-02-28T08:59:11.552Z,11.30
2019-02-28T09:01:40.043Z,11.70
2019-02-28T09:04:09.460Z,11.10
2019-02-28T09:06:40.892Z,10.63
2019-02-28T09:09:14.619Z,12.33
2019-02-28T09:11:45.093Z,12.17
2019-02-28T09:14:17.776Z,12.60
2019-02-28T09:16:47.888Z,12.37
2019-02-28T09:19:19.582Z,11.68
2019-02-28T09:21:52.929Z,10.93
2019-02-28T09:24:22.176Z,10.78
2019-02-28T09:26:52.568Z,10.47
2019-02-28T09:29:23.317Z,10.85
2019-02-28T09:31:53.669Z,11.83
2019-02-28T09:34:24.097Z,11.87
2019-02-28T09:36:56.482Z,11.87
2019-02-28T09:39:26.827Z,10.70
2019-02-28T09:41:58.746Z,11.03
2019-02-28T09:44:31.530Z,11.77
2019-02-28T09:47:02.562Z,11.53
2019-02-28T09:49:34.683Z,11.43
2019-02-28T09:52:06.426Z,12.40
2019-02-28T09:54:37.728Z,12.97
2019-02-28T09:57:08.095Z,13.60
2019-02-28T09:59:38.723Z,13.70
2019-02-28T10:02:09.613Z,13.33
2019-02-28T10:04:40.106Z,14.23
2019-02-28T10:07:10.644Z,14.43
2019-02-28T10:09:44.377Z,12.83
2019-02-28T10:12:15.235Z,14.53
2019-02-28T10:14:45.653Z,15.20
2019-02-28T10:17:16.106Z,16.55
2019-02-28T10:19:51.964Z,15.10
2019-02-28T10:22:18.754Z,15.80
2019-02-28T10:24:49.372Z,16.83
2019-02-28T10:27:19.995Z,15.65
2019-02-28T10:29:51.030Z,18.03
2019-02-28T10:32:21.465Z,17.45
2019-02-28T10:34:51.889Z,18.10
2019-02-28T10:37:22.805Z,17.17
2019-02-28T10:39:54.308Z,18.70
2019-02-28T10:42:24.777Z,16.33
2019-02-28T10:44:55.353Z,18.47
2019-02-28T10:47:29.631Z,19.13
2019-02-28T10:49:59.028Z,17.50
2019-02-28T10:52:30.658Z,19.60
2019-02-28T10:55:01.298Z,20.30
2019-02-28T10:57:31.743Z,22.60
2019-02-28T11:00:02.104Z,21.93
2019-02-28T11:02:34.134Z,19.17
2019-02-28T11:05:04.842Z,20.80
2019-02-28T11:07:37.890Z,18.87
2019-02-28T11:10:07.523Z,20.60
2019-02-28T11:12:39.456Z,19.53
2019-02-28T11:15:13.726Z,19.77
2019-02-28T11:17:44.574Z,21.07
2019-02-28T11:20:22.111Z,19.27
2019-02-28T11:22:47.680Z,18.70
2019-02-28T11:25:18.776Z,17.33
2019-02-28T11:27:49.446Z,18.37
2019-02-28T11:30:20.372Z,17.97
2019-02-28T11:32:51.125Z,19.47
2019-02-28T11:35:23.240Z,18.52
2019-02-28T11:37:53.774Z,17.37
2019-02-28T11:40:25.324Z,17.73
2019-02-28T11:42:59.478Z,16.43
2019-02-28T11:45:29.014Z,17.83
2019-02-28T11:48:00.680Z,15.90
2019-02-28T11:50:31.279Z,16.30
2019-02-28T11:53:04.874Z,16.90
2019-02-28T11:55:33.857Z,17.07
2019-02-28T11:58:04.261Z,16.50
2019-02-28T12:00:35.728Z,15.30
2019-02-28T12:03:07.158Z,15.13
2019-02-28T12:05:37.839Z,14.13
2019-02-28T12:08:10.361Z,14.20
2019-02-28T12:10:40.371Z,13.57
2019-02-28T12:13:10.949Z,14.30
2019-02-28T12:15:42.400Z,14.37
2019-02-28T12:18:12.926Z,13.07
2019-02-28T12:20:43.498Z,11.90
2019-02-28T12:23:13.905Z,14.00
2019-02-28T12:25:44.263Z,12.83
2019-02-28T12:28:14.851Z,13.13
2019-02-28T12:30:45.227Z,12.70
2019-02-28T12:33:19.008Z,13.17
2019-02-28T12:35:47.893Z,13.37
2019-02-28T12:38:18.339Z,13.38
2019-02-28T12:40:49.572Z,13.63
2019-02-28T12:43:20.236Z,14.40
2019-02-28T12:45:50.847Z,13.67
2019-02-28T12:48:21.621Z,13.97
2019-02-28T12:50:52.103Z,14.57
2019-02-28T12:53:25.249Z,13.63
2019-02-28T12:55:54.680Z,14.83
2019-02-28T12:58:25.058Z,14.80
2019-02-28T13:01:00.029Z,14.00
2019-02-28T13:03:28.598Z,14.10
2019-02-28T13:05:59.084Z,14.17
2019-02-28T13:08:29.520Z,14.10
2019-02-28T13:11:04.539Z,13.53
2019-02-28T13:13:32.267Z,12.77
2019-02-28T13:16:03.003Z,12.70
2019-02-28T13:18:33.380Z,13.70
2019-02-28T13:21:06.161Z,13.90
2019-02-28T13:23:36.069Z,13.67
2019-02-28T13:26:06.550Z,13.20
2019-02-28T13:28:36.978Z,14.53
2019-02-28T13:31:07.473Z,12.63
2019-02-28T13:33:37.834Z,13.80
2019-02-28T13:36:08.232Z,14.87
2019-02-28T13:38:38.722Z,12.47
2019-02-28T13:41:09.217Z,12.27
2019-02-28T13:43:39.626Z,13.10
2019-02-28T13:46:12.887Z,14.05
2019-02-28T13:48:43.346Z,13.20
2019-02-28T13:51:13.878Z,12.87
2019-02-28T13:53:44.339Z,13.10
2019-02-28T13:56:14.954Z,13.45
2019-02-28T13:58:45.519Z,13.60
2019-02-28T14:01:19.420Z,11.60
2019-02-28T14:03:48.506Z,12.77
2019-02-28T14:06:20.080Z,11.73
2019-02-28T14:08:50.506Z,13.90
2019-02-28T14:11:21.331Z,13.60
2019-02-28T14:13:51.918Z,12.57
2019-02-28T14:16:26.525Z,13.78
2019-02-28T14:18:54.808Z,12.57
2019-02-28T14:21:25.398Z,12.40
2019-02-28T14:23:56.770Z,12.00
2019-02-28T14:26:27.243Z,12.60
2019-02-28T14:28:57.689Z,12.20
2019-02-28T14:31:29.523Z,12.87
2019-02-28T14:34:00.276Z,13.00
2019-02-28T14:36:30.938Z,12.00
2019-02-28T14:39:01.467Z,13.00
2019-02-28T14:41:33.473Z,12.73
2019-02-28T14:44:03.990Z,11.70
2019-02-28T14:46:34.836Z,12.30
2019-02-28T14:49:06.104Z,12.60
2019-02-28T14:51:37.629Z,12.70
2019-02-28T14:54:08.186Z,12.30
2019-02-28T14:56:39.531Z,11.73
2019-02-28T14:59:10.848Z,12.47
2019-02-28T15:01:41.460Z,12.63
2019-02-28T15:04:11.980Z,11.97
2019-02-28T15:06:42.486Z,11.87
2019-02-28T15:09:17.677Z,11.35
2019-02-28T15:11:48.297Z,12.27
2019-02-28T15:14:18.743Z,12.13
2019-02-28T15:16:49.252Z,11.47
2019-02-28T15:19:21.480Z,11.30
2019-02-28T15:21:52.866Z,11.27
2019-02-28T15:24:23.282Z,12.00
2019-02-28T15:26:53.700Z,12.83
2019-02-28T15:29:24.618Z,12.83
2019-02-28T15:31:56.139Z,12.97
2019-02-28T15:34:26.645Z,11.88
2019-02-28T15:36:59.174Z,13.30
2019-02-28T15:39:29.168Z,12.87
2019-02-28T15:41:59.664Z,13.00
2019-02-28T15:44:30.226Z,12.67
2019-02-28T15:47:00.850Z,13.83
2019-02-28T15:49:31.696Z,12.50
2019-02-28T15:52:05.276Z,13.53
2019-02-28T15:54:34.202Z,12.93
2019-02-28T15:57:04.784Z,12.00
2019-02-28T15:59:35.169Z,13.67
2019-02-28T16:02:06.247Z,13.50
2019-02-28T16:04:37.498Z,13.53
2019-02-28T16:07:08.179Z,14.40
2019-02-28T16:09:38.599Z,15.13
2019-02-28T16:12:12.514Z,14.77
2019-02-28T16:14:44.468Z,14.27
2019-02-28T16:17:14.955Z,15.78
2019-02-28T16:19:45.431Z,15.03
2019-02-28T16:22:18.200Z,14.70
2019-02-28T16:24:48.193Z,15.83
2019-02-28T16:27:18.556Z,14.95
2019-02-28T16:29:49.103Z,15.23
2019-02-28T16:32:19.517Z,14.93
2019-02-28T16:34:49.985Z,15.43
2019-02-28T16:37:20.417Z,16.12
2019-02-28T16:39:50.918Z,16.13
2019-02-28T16:42:21.773Z,16.17
2019-02-28T16:44:52.273Z,15.80
2019-02-28T16:47:24.487Z,16.27
2019-02-28T16:49:55.579Z,16.07
2019-02-28T16:52:26.002Z,16.90
2019-02-28T16:54:57.082Z,16.20
2019-02-28T16:57:27.507Z,16.57
2019-02-28T16:59:57.960Z,16.67
2019-02-28T17:02:29.277Z,17.40
2019-02-28T17:05:00.452Z,18.13
2019-02-28T17:07:30.803Z,18.53
2019-02-28T17:10:01.651Z,19.57
2019-02-28T17:12:48.881Z,19.50
2019-02-28T17:15:24.469Z,20.00
2019-02-28T17:17:58.466Z,18.80
2019-02-28T17:20:29.012Z,19.27
2019-02-28T17:23:01.422Z,19.37
2019-02-28T17:39:17.380Z,18.37
2019-02-28T17:41:47.939Z,19.20
2019-02-28T17:44:46.134Z,18.80
2019-02-28T17:47:41.294Z,18.17
2019-02-28T17:50:46.235Z,18.93
2019-02-28T17:53:48.918Z,20.00
2019-02-28T17:57:03.358Z,20.97
2019-02-28T18:06:43.716Z,19.90
2019-02-28T18:09:50.410Z,20.17
2019-02-28T18:13:00.927Z,21.37
2019-02-28T18:16:04.426Z,21.53
2019-02-28T18:19:14.852Z,21.20
2019-02-28T18:22:25.331Z,22.20
2019-02-28T18:25:52.027Z,23.17
2019-02-28T18:28:54.841Z,22.97
2019-02-28T18:31:25.729Z,23.83
2019-02-28T18:34:04.737Z,23.83
2019-02-28T18:36:40.191Z,24.13
2019-02-28T18:39:11.582Z,22.00
2019-02-28T18:41:44.562Z,23.13
2019-02-28T18:44:15.169Z,24.37
2019-02-28T18:46:46.561Z,24.50
2019-02-28T18:49:16.925Z,25.43
2019-02-28T18:51:47.431Z,24.23
2019-02-28T18:54:17.787Z,23.27
2019-02-28T18:56:48.211Z,22.80
2019-02-28T18:59:18.608Z,23.12
2019-02-28T19:01:49.051Z,22.67
2019-02-28T19:04:19.483Z,23.45
2019-02-28T19:06:49.952Z,23.40
2019-02-28T19:09:22.128Z,23.60
2019-02-28T19:11:54.175Z,24.43
2019-02-28T19:14:26.149Z,25.53
2019-02-28T19:16:56.637Z,27.10
2019-02-28T19:19:27.314Z,26.73
2019-02-28T19:21:57.834Z,27.47
2019-02-28T19:24:28.461Z,26.03
2019-02-28T19:26:58.935Z,25.30
2019-02-28T19:29:29.978Z,27.53
2019-02-28T19:32:02.893Z,27.37
2019-02-28T19:34:33.783Z,27.43
2019-02-28T19:37:04.745Z,27.97
2019-02-28T19:39:35.319Z,29.67
2019-02-28T19:42:06.166Z,30.40
2019-02-28T19:44:36.630Z,32.17
2019-02-28T19:47:07.958Z,31.83
2019-02-28T19:49:38.407Z,33.90
2019-02-28T19:52:09.080Z,32.00
2019-02-28T19:54:40.119Z,33.57
2019-02-28T19:57:10.949Z,32.28
2019-02-28T19:59:42.087Z,30.87
2019-02-28T20:02:16.546Z,31.70
2019-02-28T20:04:47.854Z,30.00
2019-02-28T20:07:20.015Z,30.95
2019-02-28T20:09:51.074Z,30.27
2019-02-28T20:12:21.646Z,30.53
2019-02-28T20:14:52.799Z,29.73
2019-02-28T20:17:23.800Z,28.87
2019-02-28T20:19:55.598Z,26.07
2019-02-28T20:22:26.269Z,26.87
2019-02-28T20:24:57.034Z,26.57
2019-02-28T20:27:27.414Z,28.73
2019-02-28T20:30:00.279Z,27.93
2019-02-28T20:32:30.354Z,27.67
2019-02-28T20:35:00.779Z,30.07
2019-02-28T20:37:31.443Z,29.13
2019-02-28T20:40:01.879Z,30.27
2019-02-28T20:42:32.497Z,30.80
2019-02-28T20:45:03.030Z,30.87
2019-02-28T20:47:33.675Z,31.23
2019-02-28T20:50:04.850Z,30.90
2019-02-28T20:52:35.330Z,30.13
2019-02-28T20:55:06.043Z,30.40
2019-02-28T20:57:36.477Z,30.53
2019-02-28T21:00:10.101Z,32.93
2019-02-28T21:02:40.793Z,30.63
2019-02-28T21:05:12.279Z,31.33
2019-02-28T21:07:42.807Z,31.57
2019-02-28T21:10:13.789Z,34.37
2019-02-28T21:12:44.238Z,35.97
2019-02-28T21:15:19.078Z,35.30
2019-02-28T21:17:49.873Z,35.67
2019-02-28T21:20:20.672Z,37.20
2019-02-28T21:22:51.138Z,33.20
2019-02-28T21:25:21.832Z,34.00
2019-02-28T21:27:52.448Z,32.67
2019-02-28T21:30:24.111Z,32.97
2019-02-28T21:32:54.801Z,35.03
2019-02-28T21:35:25.822Z,33.90
2019-02-28T21:37:58.584Z,33.93
2019-02-28T21:40:29.190Z,34.70
2019-02-28T21:42:59.689Z,38.30
2019-02-28T21:45:30.198Z,37.07
2019-02-28T21:48:00.904Z,36.97
2019-02-28T21:50:31.353Z,37.20
2019-02-28T21:53:01.827Z,37.80
2019-02-28T21:55:32.410Z,37.70
2019-02-28T21:58:02.884Z,36.87
2019-02-28T22:00:33.476Z,39.13
2019-02-28T22:03:04.238Z,39.20
2019-02-28T22:05:34.781Z,37.43
2019-02-28T22:08:05.859Z,39.03
2019-02-28T22:10:36.233Z,38.33
2019-02-28T22:13:06.925Z,39.10
2019-02-28T22:15:37.479Z,38.83
2019-02-28T22:18:07.940Z,39.70
2019-02-28T22:20:38.352Z,39.90
2019-02-28T22:23:11.218Z,42.23
2019-02-28T22:25:42.962Z,39.67
2019-02-28T22:28:13.379Z,34.73
2019-02-28T22:31:02.701Z,35.20
2019-02-28T22:33:58.663Z,35.27
2019-02-28T22:36:34.199Z,36.73
2019-02-28T22:39:06.280Z,35.43
2019-02-28T22:41:38.945Z,37.60
2019-02-28T22:44:10.779Z,36.83
2019-02-28T22:46:41.554Z,39.33
2019-02-28T22:49:12.283Z,41.25
2019-02-28T22:51:43.163Z,38.87
2019-02-28T22:54:13.613Z,38.30
2019-02-28T22:56:45.081Z,39.13
2019-02-28T22:59:15.874Z,38.78
2019-02-28T23:01:47.275Z,35.50
2019-02-28T23:04:18.053Z,32.53
2019-02-28T23:06:48.993Z,33.25
2019-02-28T23:09:21.039Z,33.02
2019-02-28T23:11:51.491Z,32.87
2019-02-28T23:14:21.875Z,35.45
2019-02-28T23:16:52.868Z,34.97
2019-02-28T23:19:23.645Z,36.80
2019-02-28T23:21:54.304Z,38.67
2019-02-28T23:24:24.922Z,39.67
2019-02-28T23:27:18.229Z,40.43
2019-02-28T23:30:18.551Z,40.97
2019-02-28T23:33:16.671Z,41.93
2019-02-28T23:35:48.713Z,44.20
2019-02-28T23:38:20.226Z,40.60
2019-02-28T23:40:51.973Z,43.33
2019-02-28T23:43:22.609Z,42.27
2019-02-28T23:45:54.749Z,41.53
2019-02-28T23:48:25.237Z,43.07
2019-02-28T23:50:55.747Z,42.47
2019-02-28T23:53:26.411Z,42.17
2019-02-28T23:55:58.654Z,42.93
2019-02-28T23:58:29.156Z,45.20
